Time;durP1;ratioP1;P1;durP2;ratioP2;P2;SDS_P1;SDS_P2;PMS_P1;PMS_P2;Temp;Humidity;BMP_temperature;BMP_pressure;BME280_temperature;BME280_humidity;BME280_pressure;Samples;Min_cycle;Max_cycle;Signal;HPM_P1;HPM_P2
2022/06/07 00:01:25;;;;;;;;;;;;;;;15.51;60.94;100982.22;5021900;28;19925;-76
2022/06/07 00:03:50;;;;;;;;;;;;;;;15.50;60.15;100983.16;5056362;28;19963;-77
2022/06/07 00:06:16;;;;;;;;;;;;;;;15.53;60.06;100979.56;5026790;28;19925;-77
2022/06/07 00:08:41;;;;;;;;;;;;;;;15.54;59.66;100984.72;5024039;28;19921;-83
2022/06/07 00:11:07;;;;;;;;;;;;;;;15.43;61.13;100981.66;5020342;28;19979;-83
2022/06/07 00:13:32;;;;;;;;;;;;;;;15.40;60.83;100976.53;5031433;28;19925;-83
2022/06/07 00:15:57;;;;;;;;;;;;;;;15.43;60.49;100985.16;5025539;28;19971;-83
2022/06/07 00:18:23;;;;;;;;;;;;;;;15.46;60.23;100985.94;5049845;28;19932;-83
2022/06/07 00:20:48;;;;;;;;;;;;;;;15.36;61.01;100986.28;5053425;28;20387;-82
2022/06/07 00:23:15;;;;;;;;;;;;;;;15.41;61.05;100980.88;5016069;28;20173;-83
2022/06/07 00:25:43;;;;;;;;;;;;;;;15.32;61.67;100982.09;5034665;28;19921;-82
2022/06/07 00:28:09;;;;;;;;;;;;;;;15.25;61.47;100984.97;5029134;28;19929;-83
2022/06/07 00:30:35;;;;;;;;;;;;;;;15.34;60.95;100972.41;5022223;28;19979;-82
2022/06/07 00:33:00;;;;;;;;;;;;;;;15.22;60.96;100974.59;5029378;28;19917;-83
2022/06/07 00:35:26;;;;;;;;;;;;;;;15.27;61.16;100972.69;5030361;28;20397;-77
2022/06/07 00:37:51;;;;;;;;;;;;;;;15.22;61.04;100972.00;5027395;28;19934;-77
2022/06/07 00:40:16;;;;;;;;;;;;;;;15.16;60.94;100978.31;5011890;28;19963;-78
2022/06/07 00:42:42;;;;;;;;;;;;;;;15.26;60.38;100966.59;5025948;28;19921;-78
2022/06/07 00:45:15;;;;;;;;;;;;;;;15.25;61.18;100971.88;5030241;28;19925;-78
2022/06/07 00:47:41;;;;;;;;;;;;;;;15.19;60.33;100969.50;5005495;28;19925;-77
2022/06/07 00:50:17;;;;;;;;;;;;;;;15.24;60.58;100964.97;5026243;28;19929;-80
2022/06/07 00:52:43;;;;;;;;;;;;;;;15.21;61.07;100971.16;5027967;28;19932;-80
2022/06/07 00:55:08;;;;;;;;;;;;;;;15.15;61.68;100965.28;5034859;28;19929;-80
2022/06/07 00:57:35;;;;;;;;;;;;;;;15.08;61.19;100961.19;5025270;28;19933;-80
2022/06/07 01:00:03;;;;;;;;;;;;;;;15.16;61.32;100961.75;5030484;28;19970;-80
2022/06/07 01:02:28;;;;;;;;;;;;;;;15.21;61.14;100960.69;5019692;28;19929;-81
2022/06/07 01:04:54;;;;;;;;;;;;;;;15.17;60.88;100955.63;5025744;28;20406;-80
2022/06/07 01:12:47;;;;;;;;;;;;;;;15.04;62.32;100960.44;5021987;28;20071;-80
2022/06/07 01:15:13;;;;;;;;;;;;;;;15.12;61.84;100965.41;5028596;28;20015;-80
2022/06/07 01:17:38;;;;;;;;;;;;;;;15.13;61.57;100962.72;5030827;28;19925;-80
2022/06/07 01:20:04;;;;;;;;;;;;;;;15.18;61.93;100966.03;5039300;28;19929;-80
2022/06/07 01:22:29;;;;;;;;;;;;;;;15.07;62.15;100964.69;5024930;28;19935;-80
2022/06/07 01:24:55;;;;;;;;;;;;;;;15.07;60.87;100962.09;5022779;28;19926;-80
2022/06/07 01:27:20;;;;;;;;;;;;;;;15.00;61.38;100956.25;5031008;28;20023;-80
2022/06/07 01:29:46;;;;;;;;;;;;;;;15.01;61.45;100963.16;5031350;28;19920;-80
2022/06/07 01:32:11;;;;;;;;;;;;;;;15.06;62.07;100960.41;5033799;28;19930;-80
2022/06/07 01:34:41;;;;;;;;;;;;;;;15.02;61.89;100957.03;5032647;28;19929;-80
2022/06/07 01:37:07;;;;;;;;;;;;;;;15.09;61.84;100961.16;5027035;28;19924;-80
2022/06/07 01:42:16;;;;;;;;;;;;;;;14.99;61.94;100964.13;5032601;28;19924;-80
2022/06/07 01:44:43;;;;;;;;;;;;;;;14.96;62.37;100964.25;5031137;28;20358;-80
2022/06/07 01:47:10;;;;;;;;;;;;;;;14.96;61.67;100956.41;5031838;28;19942;-80
2022/06/07 01:49:36;;;;;;;;;;;;;;;14.95;62.38;100954.72;5032267;28;19937;-80
2022/06/07 01:52:02;;;;;;;;;;;;;;;14.97;62.22;100960.72;5032276;28;19928;-80
2022/06/07 01:54:28;;;;;;;;;;;;;;;14.95;62.16;100962.56;5028067;28;20424;-80
2022/06/07 01:56:53;;;;;;;;;;;;;;;15.00;60.76;100952.78;5033769;28;19925;-80
2022/06/07 01:59:19;;;;;;;;;;;;;;;14.90;61.50;100952.25;5017132;28;20739;-80
2022/06/07 02:01:48;;;;;;;;;;;;;;;14.91;61.92;100953.97;5028390;28;19929;-80
2022/06/07 02:04:13;;;;;;;;;;;;;;;14.95;61.11;100952.91;5025245;28;19926;-80
2022/06/07 02:06:39;;;;;;;;;;;;;;;14.90;61.67;100940.91;5024022;28;20583;-80
2022/06/07 02:09:06;;;;;;;;;;;;;;;14.87;62.04;100947.13;5033292;28;19940;-80
2022/06/07 02:11:31;;;;;;;;;;;;;;;14.92;61.32;100941.75;5038012;28;20019;-80
2022/06/07 02:13:57;;;;;;;;;;;;;;;14.99;61.31;100940.59;5033481;28;20103;-80
2022/06/07 02:16:23;;;;;;;;;;;;;;;14.96;61.69;100938.94;5024766;28;19940;-80
2022/06/07 02:18:49;;;;;;;;;;;;;;;15.01;61.73;100937.00;5036052;28;19924;-80
2022/06/07 02:21:15;;;;;;;;;;;;;;;14.97;61.92;100935.44;5037652;28;19929;-82
2022/06/07 02:23:40;;;;;;;;;;;;;;;15.02;62.23;100940.47;5033303;28;20448;-83
2022/06/07 02:26:18;;;;;;;;;;;;;;;14.98;62.33;100938.91;5033758;28;19925;-82
2022/06/07 02:28:48;;;;;;;;;;;;;;;14.98;61.26;100937.09;5032735;28;20008;-82
2022/06/07 02:31:13;;;;;;;;;;;;;;;14.91;61.61;100933.03;5033921;28;19968;-82
2022/06/07 02:33:39;;;;;;;;;;;;;;;14.97;62.44;100937.19;5048317;28;19967;-82
2022/06/07 02:36:07;;;;;;;;;;;;;;;14.95;62.04;100928.53;5035081;28;20562;-83
2022/06/07 02:38:32;;;;;;;;;;;;;;;14.97;61.76;100932.81;5028730;28;19932;-83
2022/06/07 02:40:58;;;;;;;;;;;;;;;14.96;61.65;100931.09;5049877;28;19925;-83
2022/06/07 02:43:24;;;;;;;;;;;;;;;14.92;62.23;100934.72;5033703;28;19974;-82
2022/06/07 02:45:49;;;;;;;;;;;;;;;14.93;61.89;100930.34;5056983;28;19921;-82
2022/06/07 02:48:14;;;;;;;;;;;;;;;14.93;61.72;100931.19;5031765;28;19980;-82
2022/06/07 02:50:40;;;;;;;;;;;;;;;15.01;61.81;100925.69;5018807;28;19917;-83
2022/06/07 02:53:06;;;;;;;;;;;;;;;14.97;62.05;100924.09;5045614;28;19933;-82
2022/06/07 02:55:31;;;;;;;;;;;;;;;15.01;61.68;100928.28;5028238;28;20290;-83
2022/06/07 02:57:58;;;;;;;;;;;;;;;15.07;61.58;100925.44;5029460;28;19940;-82
2022/06/07 03:00:24;;;;;;;;;;;;;;;15.01;61.76;100931.78;5033285;28;20279;-82
2022/06/07 03:02:49;;;;;;;;;;;;;;;14.96;61.51;100932.84;5033786;28;19928;-82
2022/06/07 03:05:15;;;;;;;;;;;;;;;14.98;62.29;100934.50;5028764;28;20047;-82
2022/06/07 03:07:41;;;;;;;;;;;;;;;15.01;62.54;100930.91;5023212;28;19921;-83
2022/06/07 03:10:07;;;;;;;;;;;;;;;14.97;62.40;100937.19;5010923;28;20343;-82
2022/06/07 03:12:32;;;;;;;;;;;;;;;14.94;62.46;100929.44;5027491;28;19928;-82
2022/06/07 03:14:58;;;;;;;;;;;;;;;14.89;63.31;100929.59;5039349;28;20465;-82
2022/06/07 03:17:24;;;;;;;;;;;;;;;14.87;62.38;100932.28;5031042;28;20453;-82
2022/06/07 03:19:50;;;;;;;;;;;;;;;14.94;62.20;100926.81;5013629;28;19925;-82
2022/06/07 03:22:16;;;;;;;;;;;;;;;14.91;61.98;100929.56;5027000;28;19921;-82
2022/06/07 03:24:41;;;;;;;;;;;;;;;14.84;62.17;100927.16;5030328;28;19921;-82
2022/06/07 03:27:07;;;;;;;;;;;;;;;14.86;61.67;100924.47;5011525;28;19933;-82
2022/06/07 03:29:32;;;;;;;;;;;;;;;14.85;62.35;100931.50;5026364;28;19925;-83
2022/06/07 03:31:57;;;;;;;;;;;;;;;14.78;62.94;100930.00;5008999;28;19925;-82
2022/06/07 03:34:23;;;;;;;;;;;;;;;14.79;62.51;100930.84;5024721;28;19929;-82
2022/06/07 03:36:48;;;;;;;;;;;;;;;14.78;63.50;100936.97;5026961;28;19935;-82
2022/06/07 03:39:13;;;;;;;;;;;;;;;14.72;63.17;100932.78;5027384;28;20379;-82
2022/06/07 03:41:39;;;;;;;;;;;;;;;14.71;63.55;100938.91;5031743;28;20387;-82
2022/06/07 03:44:04;;;;;;;;;;;;;;;14.74;63.23;100936.22;5031263;28;20012;-83
2022/06/07 03:46:32;;;;;;;;;;;;;;;14.71;62.84;100946.75;5041951;28;20015;-83
2022/06/07 03:48:58;;;;;;;;;;;;;;;14.75;62.27;100939.69;5030804;28;20012;-82
2022/06/07 03:51:24;;;;;;;;;;;;;;;14.65;63.14;100943.53;5018640;28;20036;-82
2022/06/07 03:53:50;;;;;;;;;;;;;;;14.76;62.99;100939.66;5025055;28;19922;-78
2022/06/07 03:56:16;;;;;;;;;;;;;;;14.59;63.78;100948.97;5042304;28;19925;-78
2022/06/07 03:58:42;;;;;;;;;;;;;;;14.69;63.67;100937.28;5026542;28;19929;-82
2022/06/07 04:01:09;;;;;;;;;;;;;;;14.74;63.20;100941.47;5026790;28;20512;-82
2022/06/07 04:03:34;;;;;;;;;;;;;;;14.76;62.71;100941.44;5035720;28;19921;-82
2022/06/07 04:06:01;;;;;;;;;;;;;;;14.86;62.42;100943.63;5012102;28;19928;-83
2022/06/07 04:08:26;;;;;;;;;;;;;;;14.77;63.23;100946.59;5030864;28;19929;-82
2022/06/07 04:10:59;;;;;;;;;;;;;;;14.71;62.78;100949.38;5036692;28;19929;-78
2022/06/07 04:13:27;;;;;;;;;;;;;;;14.72;62.89;100951.09;5019408;28;20355;-78
2022/06/07 04:15:52;;;;;;;;;;;;;;;14.79;62.98;100949.16;5033101;28;19928;-78
2022/06/07 04:18:18;;;;;;;;;;;;;;;14.81;62.65;100950.81;5033781;28;19917;-77
2022/06/07 04:20:44;;;;;;;;;;;;;;;14.72;62.97;100945.00;5025755;28;20298;-76
2022/06/07 04:23:14;;;;;;;;;;;;;;;14.82;61.96;100944.69;5025122;28;19932;-80
2022/06/07 04:25:41;;;;;;;;;;;;;;;14.75;62.53;100943.19;5034158;28;19925;-82
2022/06/07 04:28:07;;;;;;;;;;;;;;;14.84;62.83;100942.00;5012759;28;19971;-82
2022/06/07 04:30:32;;;;;;;;;;;;;;;14.83;63.18;100943.75;5024600;28;19978;-82
2022/06/07 04:32:57;;;;;;;;;;;;;;;14.79;63.49;100944.78;5031361;28;20363;-77
2022/06/07 04:35:23;;;;;;;;;;;;;;;14.75;63.08;100937.09;5031197;28;19924;-76
2022/06/07 04:37:49;;;;;;;;;;;;;;;14.84;63.44;100937.63;5024713;28;20642;-80
2022/06/07 04:40:14;;;;;;;;;;;;;;;14.89;62.47;100942.69;5057247;28;20003;-76
2022/06/07 04:42:41;;;;;;;;;;;;;;;14.94;62.24;100937.28;5051121;28;20345;-76
2022/06/07 04:45:09;;;;;;;;;;;;;;;14.89;63.11;100939.22;5026431;28;20403;-77
2022/06/07 04:47:35;;;;;;;;;;;;;;;14.89;62.67;100947.91;5034066;28;19963;-78
2022/06/07 04:50:00;;;;;;;;;;;;;;;14.95;63.06;100939.00;5021853;28;20018;-76
2022/06/07 04:52:25;;;;;;;;;;;;;;;14.89;63.57;100944.47;5034326;28;20412;-76
2022/06/07 04:54:51;;;;;;;;;;;;;;;14.96;63.63;100943.31;5036123;28;19925;-83
2022/06/07 04:57:16;;;;;;;;;;;;;;;15.00;63.40;100947.53;5029184;28;19926;-82
2022/06/07 04:59:41;;;;;;;;;;;;;;;15.09;63.30;100949.81;5036902;28;20016;-82
2022/06/07 05:02:07;;;;;;;;;;;;;;;14.97;63.76;100943.28;5003858;28;19936;-76
2022/06/07 05:04:32;;;;;;;;;;;;;;;15.06;62.57;100952.53;5025299;28;20469;-78
2022/06/07 05:06:57;;;;;;;;;;;;;;;14.92;63.36;100950.41;5021182;28;19929;-80
2022/06/07 05:09:24;;;;;;;;;;;;;;;14.99;62.94;100957.16;5026587;28;19918;-80
2022/06/07 05:11:50;;;;;;;;;;;;;;;15.02;62.50;100953.56;5027783;28;20643;-76
2022/06/07 05:14:16;;;;;;;;;;;;;;;14.99;62.48;100953.66;5022871;28;20004;-83
2022/06/07 05:16:42;;;;;;;;;;;;;;;15.03;63.13;100960.50;5028856;28;20033;-77
2022/06/07 05:19:10;;;;;;;;;;;;;;;14.98;63.25;100957.22;5032770;28;19921;-76
2022/06/07 05:21:35;;;;;;;;;;;;;;;15.01;63.38;100955.31;5036492;28;20357;-83
2022/06/07 05:24:00;;;;;;;;;;;;;;;15.06;62.61;100950.78;5026896;28;19979;-83
2022/06/07 05:26:29;;;;;;;;;;;;;;;15.21;62.98;100954.59;5031620;28;19921;-78
2022/06/07 05:28:55;;;;;;;;;;;;;;;15.23;63.11;100955.38;5032731;28;20020;-83
2022/06/07 05:31:20;;;;;;;;;;;;;;;15.26;62.26;100953.53;5029358;28;20390;-80
2022/06/07 05:33:45;;;;;;;;;;;;;;;15.24;62.62;100959.72;5036949;28;19925;-81
2022/06/07 05:36:14;;;;;;;;;;;;;;;15.26;62.58;100961.38;5033531;28;19959;-78
2022/06/07 05:38:39;;;;;;;;;;;;;;;15.23;63.03;100960.63;5032710;28;20409;-77
2022/06/07 05:41:05;;;;;;;;;;;;;;;15.27;62.89;100959.63;5027022;28;20648;-77
2022/06/07 05:43:30;;;;;;;;;;;;;;;15.25;62.77;100959.66;5026921;28;20396;-77
2022/06/07 05:45:56;;;;;;;;;;;;;;;15.25;62.81;100954.41;5025137;28;19921;-77
2022/06/07 05:48:22;;;;;;;;;;;;;;;15.28;63.56;100958.69;5025327;28;19927;-82
2022/06/07 05:50:49;;;;;;;;;;;;;;;15.35;63.08;100954.94;5035885;28;19927;-78
2022/06/07 05:53:15;;;;;;;;;;;;;;;15.34;64.09;100955.84;5030609;28;20375;-77
2022/06/07 05:55:41;;;;;;;;;;;;;;;15.31;64.05;100955.94;5031326;28;19921;-77
2022/06/07 05:58:07;;;;;;;;;;;;;;;15.38;64.37;100960.06;5045929;28;19920;-77
2022/06/07 06:00:33;;;;;;;;;;;;;;;15.39;64.28;100959.97;5037309;28;19954;-78
2022/06/07 06:02:58;;;;;;;;;;;;;;;15.43;63.51;100961.59;5037322;28;19925;-77
2022/06/07 06:05:23;;;;;;;;;;;;;;;15.48;63.34;100961.44;5039151;28;19981;-77
2022/06/07 06:10:32;;;;;;;;;;;;;;;15.54;61.92;100962.97;5040937;28;19971;-77
2022/06/07 06:12:58;;;;;;;;;;;;;;;15.48;61.53;100957.94;5031530;28;20321;-77
2022/06/07 06:15:23;;;;;;;;;;;;;;;15.55;61.27;100956.78;5029483;28;19927;-78
2022/06/07 06:17:48;;;;;;;;;;;;;;;15.56;60.95;100956.75;5030127;28;19932;-77
2022/06/07 06:20:14;;;;;;;;;;;;;;;15.54;61.88;100953.31;5027674;28;20386;-77
2022/06/07 06:22:39;;;;;;;;;;;;;;;15.49;60.36;100954.41;5029900;28;19971;-77
2022/06/07 06:25:06;;;;;;;;;;;;;;;15.54;61.02;100961.16;5025166;28;20317;-77
2022/06/07 06:27:32;;;;;;;;;;;;;;;15.52;60.19;100955.16;5023132;28;20558;-78
2022/06/07 06:29:57;;;;;;;;;;;;;;;15.62;60.68;100959.13;5035971;28;20192;-77
2022/06/07 06:32:23;;;;;;;;;;;;;;;15.57;59.87;100960.22;5030213;28;19935;-77
2022/06/07 06:34:48;;;;;;;;;;;;;;;15.64;59.62;100959.91;5029737;28;19944;-78
2022/06/07 06:37:14;;;;;;;;;;;;;;;15.67;60.32;100956.31;5025287;28;19936;-77
2022/06/07 06:39:39;;;;;;;;;;;;;;;15.64;61.23;100954.66;5032533;28;20404;-78
2022/06/07 06:42:04;;;;;;;;;;;;;;;15.74;59.32;100942.97;5037994;28;19917;-77
2022/06/07 06:44:30;;;;;;;;;;;;;;;15.80;58.82;100947.97;5029510;28;20158;-82
2022/06/07 06:46:57;;;;;;;;;;;;;;;15.84;59.86;100948.66;5031282;28;19986;-82
2022/06/07 06:49:22;;;;;;;;;;;;;;;15.88;59.38;100934.56;5033498;28;19917;-82
2022/06/07 06:51:47;;;;;;;;;;;;;;;15.95;60.37;100934.25;5066819;28;19983;-82
2022/06/07 06:54:13;;;;;;;;;;;;;;;15.98;59.32;100933.28;5025188;28;19925;-81
2022/06/07 06:56:39;;;;;;;;;;;;;;;15.99;59.80;100936.75;5022659;28;19964;-82
2022/06/07 06:59:07;;;;;;;;;;;;;;;16.00;60.24;100948.91;5033301;28;20028;-82
2022/06/07 07:01:33;;;;;;;;;;;;;;;16.03;60.54;100951.41;5035984;28;19925;-81
2022/06/07 07:04:00;;;;;;;;;;;;;;;16.04;60.32;100954.00;5036228;28;19960;-80
2022/06/07 07:06:26;;;;;;;;;;;;;;;16.03;59.85;100946.19;5036216;28;19921;-80
2022/06/07 07:08:52;;;;;;;;;;;;;;;16.02;60.56;100944.50;5030690;28;20323;-80
2022/06/07 07:11:20;;;;;;;;;;;;;;;16.05;60.29;100942.56;5031871;28;19929;-80
2022/06/07 07:13:46;;;;;;;;;;;;;;;16.05;59.22;100932.09;5028149;28;19927;-80
2022/06/07 07:16:14;;;;;;;;;;;;;;;16.14;60.91;100941.34;5029857;28;19933;-77
2022/06/07 07:18:40;;;;;;;;;;;;;;;16.17;60.56;100935.97;5019242;28;19921;-77
2022/06/07 07:21:06;;;;;;;;;;;;;;;16.18;59.71;100933.31;5022760;28;19939;-77
2022/06/07 07:23:32;;;;;;;;;;;;;;;16.18;59.42;100935.94;5030122;28;19921;-77
2022/06/07 07:26:02;;;;;;;;;;;;;;;16.22;59.04;100928.78;5021179;28;19925;-77
2022/06/07 07:28:28;;;;;;;;;;;;;;;16.22;58.88;100931.41;5028070;28;19929;-77
2022/06/07 07:31:01;;;;;;;;;;;;;;;16.24;58.42;100938.28;5032234;28;20333;-78
2022/06/07 07:33:27;;;;;;;;;;;;;;;16.20;59.52;100935.84;5059163;28;19924;-78
2022/06/07 07:35:52;;;;;;;;;;;;;;;16.15;58.59;100937.81;5042463;28;19943;-78
2022/06/07 07:38:18;;;;;;;;;;;;;;;16.19;58.74;100940.25;5027651;28;20645;-77
2022/06/07 07:40:45;;;;;;;;;;;;;;;16.21;59.22;100934.94;5027145;28;20214;-78
2022/06/07 07:43:10;;;;;;;;;;;;;;;16.21;58.54;100930.56;5024793;28;19929;-77
2022/06/07 07:45:36;;;;;;;;;;;;;;;16.25;58.55;100929.53;5032653;28;19921;-80
2022/06/07 07:48:01;;;;;;;;;;;;;;;16.23;58.40;100926.09;5034923;28;19922;-81
2022/06/07 07:50:26;;;;;;;;;;;;;;;16.24;58.61;100926.94;5028360;28;19983;-81
2022/06/07 07:52:52;;;;;;;;;;;;;;;16.26;58.62;100930.34;5028382;28;19932;-77
2022/06/07 07:55:17;;;;;;;;;;;;;;;16.30;59.04;100931.94;5021335;28;20012;-81
2022/06/07 07:57:43;;;;;;;;;;;;;;;16.34;59.07;100929.09;5033977;28;19924;-80
2022/06/07 08:00:09;;;;;;;;;;;;;;;16.30;58.83;100929.31;5030413;28;19917;-82
2022/06/07 08:02:34;;;;;;;;;;;;;;;16.26;59.36;100925.97;5023744;28;20406;-80
2022/06/07 08:05:00;;;;;;;;;;;;;;;16.25;59.00;100924.28;5024670;28;19929;-82
2022/06/07 08:07:25;;;;;;;;;;;;;;;16.35;58.85;100933.44;5024661;28;20018;-82
2022/06/07 08:09:50;;;;;;;;;;;;;;;16.39;59.10;100921.06;5024761;28;19925;-82
2022/06/07 08:12:16;;;;;;;;;;;;;;;16.40;58.88;100926.22;5028207;28;20405;-81
2022/06/07 08:14:41;;;;;;;;;;;;;;;16.46;58.95;100919.91;5027533;28;20008;-82
2022/06/07 08:17:06;;;;;;;;;;;;;;;16.46;58.21;100920.72;5027577;28;20526;-82
2022/06/07 08:19:31;;;;;;;;;;;;;;;16.48;56.61;100905.81;5029075;28;19921;-77
2022/06/07 08:21:57;;;;;;;;;;;;;;;16.52;57.11;100917.00;5021454;28;20031;-78
2022/06/07 08:24:22;;;;;;;;;;;;;;;16.59;57.76;100907.94;5023323;28;19925;-78
2022/06/07 08:26:49;;;;;;;;;;;;;;;16.55;57.24;100902.91;5023408;28;19921;-78
2022/06/07 08:29:19;;;;;;;;;;;;;;;16.57;57.94;100901.06;5019999;28;19996;-80
2022/06/07 08:31:45;;;;;;;;;;;;;;;16.55;57.62;100895.88;5018546;28;19925;-81
2022/06/07 08:39:40;;;;;;;;;;;;;;;16.69;56.41;100887.44;5028113;28;19940;-82
2022/06/07 08:42:08;;;;;;;;;;;;;;;16.68;55.75;100891.81;5039399;28;19922;-82
2022/06/07 08:45:06;;;;;;;;;;;;;;;16.72;56.35;100897.81;5038086;28;19931;-82
2022/06/07 08:47:32;;;;;;;;;;;;;;;16.74;57.46;100898.59;4981788;28;19933;-82
2022/06/07 08:49:58;;;;;;;;;;;;;;;16.81;56.14;100885.13;5028808;28;20651;-82
2022/06/07 08:52:29;;;;;;;;;;;;;;;16.86;56.41;100896.28;5024262;28;19921;-82
2022/06/07 08:54:58;;;;;;;;;;;;;;;16.87;57.12;100889.25;5018833;28;19927;-83
2022/06/07 08:57:36;;;;;;;;;;;;;;;16.85;57.73;100891.94;5032507;28;19921;-82
2022/06/07 09:00:13;;;;;;;;;;;;;;;16.89;56.31;100901.38;5031096;28;19917;-82
2022/06/07 09:02:49;;;;;;;;;;;;;;;16.86;55.28;100904.16;5037487;28;20379;-82
2022/06/07 09:05:16;;;;;;;;;;;;;;;16.82;55.55;100899.09;5033463;28;19921;-82
2022/06/07 09:07:42;;;;;;;;;;;;;;;16.75;55.64;100906.41;5038565;28;19917;-82
2022/06/07 09:12:58;;;;;;;;;;;;;;;16.83;55.86;100911.28;5020900;28;19979;-80
2022/06/07 09:15:24;;;;;;;;;;;;;;;16.81;55.59;100900.03;5038812;28;20256;-81
2022/06/07 09:17:55;;;;;;;;;;;;;;;16.85;55.41;100898.94;5034615;28;19980;-78
2022/06/07 09:20:22;;;;;;;;;;;;;;;16.89;56.79;100895.28;5037464;28;19961;-77
2022/06/07 09:22:51;;;;;;;;;;;;;;;16.88;55.46;100891.78;5033138;28;20372;-78
2022/06/07 09:25:34;;;;;;;;;;;;;;;16.86;54.99;100893.66;5021019;28;19925;-81
2022/06/07 09:28:01;;;;;;;;;;;;;;;16.86;54.70;100896.28;5030453;28;19929;-83
2022/06/07 09:30:26;;;;;;;;;;;;;;;16.90;55.09;100892.59;5034804;28;20330;-82
2022/06/07 09:32:52;;;;;;;;;;;;;;;16.94;55.26;100899.41;5030943;28;20466;-78
2022/06/07 09:35:33;;;;;;;;;;;;;;;16.96;55.73;100899.34;5027751;28;19998;-78
2022/06/07 09:38:01;;;;;;;;;;;;;;;16.95;56.52;100893.22;5029661;28;20314;-83
2022/06/07 09:40:28;;;;;;;;;;;;;;;17.05;57.74;100899.78;5030645;28;19925;-78
2022/06/07 09:42:57;;;;;;;;;;;;;;;16.99;58.36;100899.19;5032061;28;19924;-78
2022/06/07 09:45:27;;;;;;;;;;;;;;;17.03;58.12;100895.50;5036731;28;19921;-78
2022/06/07 09:47:53;;;;;;;;;;;;;;;17.05;58.62;100894.53;5035513;28;19921;-83
2022/06/07 09:50:30;;;;;;;;;;;;;;;17.12;59.25;100896.84;5028334;28;19925;-83
2022/06/07 09:56:32;;;;;;;;;;;;;;;17.07;56.51;100897.06;5015048;28;19928;-83
2022/06/07 09:59:01;;;;;;;;;;;;;;;17.06;57.60;100896.22;5016243;28;19925;-81
2022/06/07 10:01:46;;;;;;;;;;;;;;;17.04;58.53;100889.34;5028436;28;19928;-81
2022/06/07 10:04:21;;;;;;;;;;;;;;;17.03;59.07;100877.13;5017697;28;19924;-81
2022/06/07 10:06:49;;;;;;;;;;;;;;;17.04;58.26;100879.69;5029691;28;19925;-82
2022/06/07 10:09:32;;;;;;;;;;;;;;;17.08;59.09;100876.94;5036093;28;19920;-81
2022/06/07 10:12:18;;;;;;;;;;;;;;;17.16;57.10;100875.66;5037137;28;19920;-83
2022/06/07 10:14:44;;;;;;;;;;;;;;;17.16;58.45;100877.41;5013114;28;20314;-83
2022/06/07 10:17:15;;;;;;;;;;;;;;;17.28;55.96;100871.59;5030345;28;19924;-83
2022/06/07 10:19:59;;;;;;;;;;;;;;;17.31;57.55;100868.84;5032969;28;19928;-77
2022/06/07 10:22:32;;;;;;;;;;;;;;;17.30;56.90;100867.13;5028579;28;19983;-77
2022/06/07 10:24:58;;;;;;;;;;;;;;;17.17;55.67;100856.38;5028167;28;20007;-77
2022/06/07 10:27:32;;;;;;;;;;;;;;;17.15;56.60;100855.56;5029803;28;20004;-77
2022/06/07 10:30:12;;;;;;;;;;;;;;;17.08;57.02;100845.44;5025582;28;20417;-77
2022/06/07 10:32:57;;;;;;;;;;;;;;;17.25;56.32;100846.34;5056063;28;19919;-81
2022/06/07 10:35:23;;;;;;;;;;;;;;;17.11;57.66;100840.03;5026291;28;20334;-81
2022/06/07 10:37:57;;;;;;;;;;;;;;;17.43;57.37;100844.63;5032559;28;19921;-81
2022/06/07 10:40:29;;;;;;;;;;;;;;;17.31;57.29;100838.19;5034964;28;19965;-81
2022/06/07 10:43:01;;;;;;;;;;;;;;;17.16;59.10;100841.53;5036566;28;19921;-81
2022/06/07 10:45:30;;;;;;;;;;;;;;;17.05;58.76;100833.31;5029905;28;19921;-81
2022/06/07 10:48:05;;;;;;;;;;;;;;;17.41;56.76;100834.16;5029086;28;19920;-81
2022/06/07 10:50:40;;;;;;;;;;;;;;;17.42;57.66;100832.41;5039182;28;19962;-83
2022/06/07 10:53:05;;;;;;;;;;;;;;;17.49;55.22;100824.16;5026559;28;19970;-77
2022/06/07 10:55:40;;;;;;;;;;;;;;;17.34;56.55;100831.94;5028612;28;19971;-77
2022/06/07 10:58:11;;;;;;;;;;;;;;;17.29;55.81;100820.81;5035294;28;19933;-77
2022/06/07 11:00:37;;;;;;;;;;;;;;;17.25;56.71;100824.50;5031916;28;19925;-77
2022/06/07 11:03:14;;;;;;;;;;;;;;;17.19;56.15;100827.41;5028809;28;19992;-77
2022/06/07 11:11:22;;;;;;;;;;;;;;;17.17;55.59;100826.63;5026687;28;20289;-78
2022/06/07 11:13:47;;;;;;;;;;;;;;;17.13;55.88;100828.53;5020899;28;19969;-83
2022/06/07 11:16:16;;;;;;;;;;;;;;;17.11;57.21;100824.28;5024240;28;20528;-83
2022/06/07 11:18:42;;;;;;;;;;;;;;;17.17;55.61;100819.63;5021492;28;20040;-83
2022/06/07 11:21:08;;;;;;;;;;;;;;;17.11;55.32;100822.53;5029207;28;19929;-83
2022/06/07 11:23:35;;;;;;;;;;;;;;;17.03;56.14;100830.75;5023810;28;19926;-81
2022/06/07 11:26:14;;;;;;;;;;;;;;;17.09;56.31;100821.72;5028778;28;20411;-81
2022/06/07 11:28:39;;;;;;;;;;;;;;;17.00;56.60;100830.88;5032936;28;19998;-81
2022/06/07 11:31:23;;;;;;;;;;;;;;;17.08;55.87;100820.88;5030526;28;20453;-82
2022/06/07 11:33:51;;;;;;;;;;;;;;;17.06;55.80;100825.34;5032147;28;19925;-81
2022/06/07 11:36:27;;;;;;;;;;;;;;;17.07;57.15;100820.97;5052832;28;19922;-80
2022/06/07 11:38:58;;;;;;;;;;;;;;;17.08;56.14;100818.25;5029604;28;19921;-81
2022/06/07 11:41:39;;;;;;;;;;;;;;;17.06;56.50;100816.63;5023936;28;19921;-81
2022/06/07 11:44:04;;;;;;;;;;;;;;;17.08;57.77;100827.91;5028838;28;19927;-81
2022/06/07 11:46:41;;;;;;;;;;;;;;;17.01;58.36;100837.84;5023560;28;20330;-77
2022/06/07 11:49:19;;;;;;;;;;;;;;;17.00;58.31;100833.50;5029603;28;19925;-77
2022/06/07 11:51:53;;;;;;;;;;;;;;;17.05;56.13;100835.94;5026114;28;19929;-77
2022/06/07 11:54:22;;;;;;;;;;;;;;;17.01;57.12;100855.34;5023631;28;19921;-78
2022/06/07 11:56:48;;;;;;;;;;;;;;;16.95;59.13;100853.88;5022301;28;19926;-77
2022/06/07 11:59:16;;;;;;;;;;;;;;;16.89;61.99;100858.53;5028898;28;19929;-77
2022/06/07 12:02:01;;;;;;;;;;;;;;;16.89;64.18;100863.78;5028177;28;19924;-77
2022/06/07 12:04:30;;;;;;;;;;;;;;;16.73;64.39;100866.25;5017713;28;19929;-83
2022/06/07 12:07:00;;;;;;;;;;;;;;;16.61;65.81;100877.25;5030789;28;19980;-83
2022/06/07 12:09:27;;;;;;;;;;;;;;;16.78;67.76;100876.56;5023347;28;20012;-83
2022/06/07 12:11:52;;;;;;;;;;;;;;;16.80;68.17;100875.56;5029304;28;19948;-83
2022/06/07 12:14:35;;;;;;;;;;;;;;;16.73;66.92;100873.28;5026022;28;20426;-83
2022/06/07 12:17:17;;;;;;;;;;;;;;;16.80;66.99;100865.06;5031086;28;19925;-83
2022/06/07 12:19:44;;;;;;;;;;;;;;;16.77;68.13;100865.19;5049930;28;20078;-78
2022/06/07 12:22:17;;;;;;;;;;;;;;;16.83;69.09;100867.56;5028187;28;19925;-78
2022/06/07 12:24:44;;;;;;;;;;;;;;;16.77;68.52;100870.44;5024304;28;19921;-78
2022/06/07 12:27:20;;;;;;;;;;;;;;;16.67;67.49;100863.88;5028077;28;20393;-78
2022/06/07 12:29:46;;;;;;;;;;;;;;;16.68;69.31;100867.34;5024824;28;19948;-78
2022/06/07 12:32:25;;;;;;;;;;;;;;;16.77;70.25;100872.22;5022197;28;19966;-77
2022/06/07 12:35:03;;;;;;;;;;;;;;;16.74;69.55;100867.09;5026377;28;19925;-83
2022/06/07 12:37:29;;;;;;;;;;;;;;;16.69;69.68;100866.47;5051146;28;20070;-83
2022/06/07 12:39:57;;;;;;;;;;;;;;;16.65;68.94;100859.59;5026430;28;20474;-83
2022/06/07 12:42:23;;;;;;;;;;;;;;;16.77;68.86;100854.72;5024202;28;19970;-82
2022/06/07 12:44:53;;;;;;;;;;;;;;;16.79;70.00;100847.59;5025475;28;19921;-83
2022/06/07 12:47:24;;;;;;;;;;;;;;;16.73;69.29;100845.25;5029200;28;19929;-83
2022/06/07 12:49:50;;;;;;;;;;;;;;;16.74;70.20;100841.72;5027599;28;20294;-82
2022/06/07 12:52:20;;;;;;;;;;;;;;;16.79;70.45;100841.53;5023661;28;19971;-77
2022/06/07 12:54:47;;;;;;;;;;;;;;;16.81;69.31;100839.69;5025491;28;20055;-77
2022/06/07 12:57:24;;;;;;;;;;;;;;;16.87;68.56;100840.25;5022321;28;19918;-77
2022/06/07 12:59:55;;;;;;;;;;;;;;;16.97;69.40;100838.91;5028626;28;19929;-81
2022/06/07 13:02:26;;;;;;;;;;;;;;;17.04;69.33;100827.22;5023524;28;19945;-82
2022/06/07 13:04:53;;;;;;;;;;;;;;;17.00;69.44;100827.41;5026217;28;19925;-82
2022/06/07 13:07:21;;;;;;;;;;;;;;;16.96;68.48;100828.50;5024534;28;19936;-81